Time;durP1;ratioP1;P1;durP2;ratioP2;P2;SDS_P1;SDS_P2;PMS_P1;PMS_P2;Temp;Humidity;BMP_temperature;BMP_pressure;BME280_temperature;BME280_humidity;BME280_pressure;Samples;Min_cycle;Max_cycle;Signal;HPM_P1;HPM_P2
2023/11/30 00:18:48;;;;;;;10.75;3.20;;;2.60;99.90;;;;;;6153196;22;20017;-77
2023/11/30 00:21:13;;;;;;;5.53;2.63;;;2.60;99.90;;;;;;6178199;23;20005;-78
2023/11/30 00:23:39;;;;;;;8.15;2.55;;;2.60;99.90;;;;;;6178838;23;20016;-77
2023/11/30 00:26:05;;;;;;;4.18;2.60;;;2.60;99.90;;;;;;6179627;23;20390;-78
2023/11/30 00:28:31;;;;;;;6.55;2.40;;;2.60;99.90;;;;;;6177748;23;20005;-76
2023/11/30 00:30:56;;;;;;;6.28;2.40;;;2.50;99.90;;;;;;6178646;23;20020;-78
2023/11/30 00:33:22;;;;;;;8.20;2.17;;;2.50;99.90;;;;;;6177753;23;20017;-76
2023/11/30 00:35:47;;;;;;;5.18;2.30;;;2.50;99.90;;;;;;6181196;23;20008;-76
2023/11/30 00:38:13;;;;;;;4.45;2.00;;;2.50;99.90;;;;;;6179542;23;20009;-76
2023/11/30 00:40:39;;;;;;;5.05;2.80;;;2.50;99.90;;;;;;6180374;23;20015;-74
2023/11/30 00:43:06;;;;;;;5.20;2.47;;;2.50;99.90;;;;;;6179100;23;20016;-76
2023/11/30 00:45:32;;;;;;;5.38;1.95;;;2.50;99.90;;;;;;6178001;23;20012;-76
2023/11/30 00:47:57;;;;;;;5.50;2.20;;;2.50;99.90;;;;;;6178983;23;20312;-78
2023/11/30 00:50:23;;;;;;;5.75;2.90;;;2.40;99.90;;;;;;6177620;23;20024;-76
2023/11/30 00:52:49;;;;;;;6.20;2.35;;;2.40;99.90;;;;;;6178901;23;19997;-75
2023/11/30 00:55:14;;;;;;;6.35;2.92;;;2.50;99.90;;;;;;6180201;23;20036;-75
2023/11/30 00:57:40;;;;;;;4.95;2.60;;;2.40;99.90;;;;;;6178796;23;20339;-76
2023/11/30 01:00:08;;;;;;;8.88;2.97;;;2.40;99.90;;;;;;6178652;23;20017;-77
2023/11/30 01:02:34;;;;;;;4.93;2.70;;;2.40;99.90;;;;;;6177919;23;20031;-75
2023/11/30 01:05:00;;;;;;;7.72;2.72;;;2.30;99.90;;;;;;6179002;23;20420;-76
2023/11/30 01:07:25;;;;;;;5.75;2.20;;;2.30;99.90;;;;;;6178860;23;20020;-75
2023/11/30 01:09:51;;;;;;;5.13;3.58;;;2.30;99.90;;;;;;6180317;23;20004;-76
2023/11/30 01:12:17;;;;;;;6.22;2.50;;;2.30;99.90;;;;;;6179984;23;20009;-75
2023/11/30 01:14:42;;;;;;;5.65;2.65;;;2.30;99.90;;;;;;6178941;23;20088;-76
2023/11/30 01:17:08;;;;;;;7.82;2.50;;;2.30;99.90;;;;;;6178545;23;20016;-77
2023/11/30 01:19:34;;;;;;;6.00;3.22;;;2.30;99.90;;;;;;6179485;23;20459;-77
2023/11/30 01:22:00;;;;;;;4.47;2.63;;;2.30;99.90;;;;;;6177861;23;20135;-77
2023/11/30 01:24:25;;;;;;;7.43;3.38;;;2.30;99.90;;;;;;6178123;23;20040;-78
2023/11/30 01:26:51;;;;;;;6.38;2.83;;;2.20;99.90;;;;;;6178796;23;20024;-76
2023/11/30 01:29:16;;;;;;;5.75;2.80;;;2.20;99.90;;;;;;6177687;23;20518;-76
2023/11/30 01:31:43;;;;;;;6.55;2.63;;;2.20;99.90;;;;;;6178415;23;20005;-75
2023/11/30 01:34:09;;;;;;;8.25;2.47;;;2.20;99.90;;;;;;6180469;23;20389;-77
2023/11/30 01:36:34;;;;;;;6.75;3.33;;;2.20;99.90;;;;;;6176672;23;20013;-77
2023/11/30 01:39:00;;;;;;;7.18;2.90;;;2.20;99.90;;;;;;6178784;23;20350;-75
2023/11/30 01:41:26;;;;;;;6.32;2.85;;;2.20;99.90;;;;;;6177511;23;20142;-76
2023/11/30 01:43:52;;;;;;;9.23;2.83;;;2.20;99.90;;;;;;6177947;23;20017;-77
2023/11/30 01:46:19;;;;;;;6.63;3.25;;;2.20;99.90;;;;;;6179440;23;20402;-75
2023/11/30 01:48:46;;;;;;;4.65;2.40;;;2.20;99.90;;;;;;6178264;23;20020;-75
2023/11/30 01:51:14;;;;;;;6.78;3.28;;;2.20;99.90;;;;;;6180223;23;20001;-77
2023/11/30 01:53:40;;;;;;;7.50;2.50;;;2.20;99.90;;;;;;6180006;23;20343;-76
2023/11/30 01:56:08;;;;;;;8.02;2.75;;;2.20;99.90;;;;;;6178999;23;20005;-75
2023/11/30 01:58:34;;;;;;;7.70;2.78;;;2.20;99.90;;;;;;6178167;23;21126;-75
2023/11/30 02:01:00;;;;;;;6.30;2.78;;;2.20;99.90;;;;;;6179953;23;20009;-76
2023/11/30 02:03:28;;;;;;;5.25;2.55;;;2.20;99.90;;;;;;6178026;23;20048;-75
2023/11/30 02:05:53;;;;;;;6.38;2.85;;;2.10;99.90;;;;;;6180214;23;20067;-76
2023/11/30 02:08:19;;;;;;;7.22;3.38;;;2.10;99.90;;;;;;6179403;23;20021;-77
2023/11/30 02:10:45;;;;;;;5.47;3.08;;;2.20;99.90;;;;;;6178423;23;20447;-75
2023/11/30 02:13:10;;;;;;;4.72;2.80;;;2.10;99.90;;;;;;6178566;23;20013;-76
2023/11/30 02:15:36;;;;;;;5.63;2.67;;;2.10;99.90;;;;;;6177072;23;20009;-76
2023/11/30 02:18:01;;;;;;;6.25;2.70;;;2.10;99.90;;;;;;6178352;23;20009;-76
2023/11/30 02:20:28;;;;;;;7.97;2.88;;;2.10;99.90;;;;;;6177053;23;20096;-74
2023/11/30 02:22:53;;;;;;;9.57;3.53;;;2.10;99.90;;;;;;6178669;23;20017;-76
2023/11/30 02:25:19;;;;;;;5.40;2.60;;;2.10;99.90;;;;;;6176199;23;20044;-76
2023/11/30 02:27:45;;;;;;;7.10;3.42;;;2.10;99.90;;;;;;6178067;23;20450;-76
2023/11/30 02:30:12;;;;;;;8.63;3.30;;;2.10;99.90;;;;;;6179958;23;20001;-75
2023/11/30 02:32:37;;;;;;;5.47;3.17;;;2.10;99.90;;;;;;6177145;23;20005;-76
2023/11/30 02:35:04;;;;;;;6.18;2.70;;;2.10;99.90;;;;;;6180352;23;20461;-75
2023/11/30 02:37:29;;;;;;;6.72;3.40;;;2.10;99.90;;;;;;6180149;23;20005;-74
2023/11/30 02:39:55;;;;;;;7.10;4.00;;;2.00;99.90;;;;;;6180062;23;20037;-75
2023/11/30 02:42:21;;;;;;;8.23;3.40;;;2.00;99.90;;;;;;6180207;23;20013;-76
2023/11/30 02:44:46;;;;;;;4.95;2.60;;;2.10;99.90;;;;;;6180334;23;20012;-77
2023/11/30 02:47:12;;;;;;;9.48;3.80;;;2.10;99.90;;;;;;6180276;23;20100;-75
2023/11/30 02:49:37;;;;;;;9.15;3.83;;;2.10;99.90;;;;;;6181709;23;20343;-75
2023/11/30 02:52:04;;;;;;;5.78;2.83;;;2.10;99.90;;;;;;6183089;23;20044;-75
2023/11/30 02:54:29;;;;;;;6.43;3.25;;;2.10;99.90;;;;;;6180892;23;20364;-76
2023/11/30 02:56:55;;;;;;;8.30;3.80;;;2.10;99.90;;;;;;6180060;23;20013;-78
2023/11/30 02:59:20;;;;;;;9.38;4.32;;;2.10;99.90;;;;;;6180222;23;20394;-77
2023/11/30 03:01:48;;;;;;;9.13;4.30;;;2.10;99.90;;;;;;6181915;23;20013;-75
2023/11/30 03:04:13;;;;;;;9.68;4.07;;;2.20;99.90;;;;;;6179507;23;20001;-76
2023/11/30 03:06:40;;;;;;;10.98;3.63;;;2.20;99.90;;;;;;6203762;23;20518;-76
2023/11/30 03:09:05;;;;;;;13.23;5.50;;;2.20;99.90;;;;;;6181601;23;20079;-76
2023/11/30 03:11:31;;;;;;;8.55;4.32;;;2.20;99.90;;;;;;6179975;23;20439;-77
2023/11/30 03:13:57;;;;;;;8.77;4.43;;;2.10;99.90;;;;;;6179522;23;20053;-76
2023/11/30 03:16:27;;;;;;;10.93;4.88;;;2.10;99.90;;;;;;6180046;23;20009;-76
2023/11/30 03:18:52;;;;;;;10.07;5.68;;;2.10;99.90;;;;;;6181156;23;20486;-75
2023/11/30 03:21:19;;;;;;;13.07;6.13;;;2.10;99.90;;;;;;6178441;23;20021;-77
2023/11/30 03:23:45;;;;;;;14.23;5.82;;;2.10;99.90;;;;;;6179093;23;20020;-75
2023/11/30 03:26:14;;;;;;;15.65;6.03;;;2.10;99.90;;;;;;6179770;23;20020;-75
2023/11/30 03:28:39;;;;;;;14.50;6.10;;;2.10;99.90;;;;;;6177400;23;20031;-75
2023/11/30 03:31:05;;;;;;;18.27;6.28;;;2.10;99.90;;;;;;6179443;23;20343;-76
2023/11/30 03:33:31;;;;;;;12.43;5.95;;;2.10;99.90;;;;;;6178467;23;20350;-75
2023/11/30 03:35:56;;;;;;;15.48;6.95;;;2.10;99.90;;;;;;6181199;23;20005;-75
2023/11/30 03:38:22;;;;;;;15.73;7.28;;;2.10;99.90;;;;;;6178533;23;20033;-74
2023/11/30 03:40:47;;;;;;;15.70;6.70;;;2.10;99.90;;;;;;6180314;23;20020;-76
2023/11/30 03:43:13;;;;;;;13.90;6.97;;;2.00;99.90;;;;;;6182586;23;20423;-76
2023/11/30 03:45:39;;;;;;;18.83;6.70;;;2.00;99.90;;;;;;6179904;23;20040;-76
2023/11/30 03:48:04;;;;;;;12.82;6.20;;;2.00;99.90;;;;;;6179389;23;20019;-75
2023/11/30 03:50:30;;;;;;;17.42;7.43;;;2.00;99.90;;;;;;6180273;23;20013;-75
2023/11/30 03:52:55;;;;;;;15.15;6.28;;;2.00;99.90;;;;;;6180863;23;20562;-76
2023/11/30 03:55:22;;;;;;;20.55;8.60;;;2.00;99.90;;;;;;6179894;23;20320;-75
2023/11/30 03:57:47;;;;;;;16.50;7.32;;;2.00;99.90;;;;;;6179246;23;20001;-76
2023/11/30 04:00:14;;;;;;;16.70;6.78;;;2.10;99.90;;;;;;6179105;23;20001;-76
2023/11/30 04:02:42;;;;;;;18.52;7.75;;;2.00;99.90;;;;;;6180644;23;19997;-76
2023/11/30 04:05:10;;;;;;;20.00;7.40;;;2.00;99.90;;;;;;6178773;23;20013;-75
2023/11/30 04:07:37;;;;;;;20.08;7.50;;;2.00;99.90;;;;;;6177453;23;20012;-76
2023/11/30 04:10:03;;;;;;;20.55;8.20;;;2.00;99.90;;;;;;6178270;23;20346;-75
2023/11/30 04:12:28;;;;;;;20.45;7.65;;;2.00;99.90;;;;;;6177696;23;20056;-76
2023/11/30 04:14:54;;;;;;;24.05;7.65;;;2.00;99.90;;;;;;6179485;23;20009;-76
2023/11/30 04:17:20;;;;;;;20.40;8.38;;;2.00;99.90;;;;;;6178024;23;20097;-78
2023/11/30 04:19:46;;;;;;;30.75;8.52;;;2.00;99.90;;;;;;6179968;23;20071;-76
2023/11/30 04:22:11;;;;;;;22.73;8.60;;;1.90;99.90;;;;;;6178671;23;20349;-77
2023/11/30 04:24:37;;;;;;;19.52;8.05;;;1.80;99.90;;;;;;6177235;23;20490;-75
2023/11/30 04:27:03;;;;;;;20.27;8.38;;;1.90;99.90;;;;;;6178765;23;20447;-75
2023/11/30 04:29:28;;;;;;;21.95;7.57;;;1.90;99.90;;;;;;6179296;23;20013;-76
2023/11/30 04:31:54;;;;;;;24.85;8.57;;;1.80;99.90;;;;;;6181309;23;20400;-76
2023/11/30 04:34:19;;;;;;;14.32;6.68;;;1.80;99.90;;;;;;6178991;23;20059;-78
2023/11/30 04:36:45;;;;;;;20.48;7.82;;;1.80;99.90;;;;;;6179400;23;20435;-77
2023/11/30 04:39:15;;;;;;;17.05;7.80;;;1.80;99.90;;;;;;6179991;23;20130;-75
2023/11/30 04:41:40;;;;;;;17.83;7.25;;;1.80;99.90;;;;;;6179972;23;20075;-77
2023/11/30 04:44:06;;;;;;;18.95;7.72;;;1.80;99.90;;;;;;6180771;23;20461;-75
2023/11/30 04:46:31;;;;;;;20.23;7.60;;;1.80;99.90;;;;;;6175488;23;20332;-76
2023/11/30 04:48:58;;;;;;;17.88;7.65;;;1.70;99.90;;;;;;6178702;23;20009;-76
2023/11/30 04:51:24;;;;;;;17.58;6.63;;;1.70;99.90;;;;;;6179195;23;20016;-76
2023/11/30 04:53:50;;;;;;;14.15;6.55;;;1.70;99.90;;;;;;6177541;23;20005;-76
2023/11/30 04:56:16;;;;;;;21.88;6.93;;;1.60;99.90;;;;;;6177276;23;20539;-76
2023/11/30 04:58:42;;;;;;;11.70;5.78;;;1.60;99.90;;;;;;6178201;23;20009;-75
2023/11/30 05:01:08;;;;;;;11.98;5.85;;;1.60;99.90;;;;;;6177833;23;20359;-75
2023/11/30 05:03:35;;;;;;;14.18;6.90;;;1.50;99.90;;;;;;6178927;23;20013;-75
2023/11/30 05:06:00;;;;;;;13.93;6.43;;;1.50;99.90;;;;;;6180183;23;20119;-75
2023/11/30 05:08:26;;;;;;;16.02;6.72;;;1.50;99.90;;;;;;6178773;23;20628;-76
2023/11/30 05:10:51;;;;;;;16.60;7.00;;;1.50;99.90;;;;;;6180293;23;20013;-76
2023/11/30 05:13:17;;;;;;;16.92;6.80;;;1.50;99.90;;;;;;6177070;23;20005;-75
2023/11/30 05:15:43;;;;;;;18.45;7.30;;;1.50;99.90;;;;;;6178399;23;20458;-77
2023/11/30 05:18:08;;;;;;;13.55;6.60;;;1.50;99.90;;;;;;6178441;23;20005;-76
2023/11/30 05:20:34;;;;;;;15.63;6.90;;;1.60;99.90;;;;;;6177370;23;20434;-75
2023/11/30 05:23:01;;;;;;;15.65;6.53;;;1.60;99.90;;;;;;6178886;23;20016;-75
2023/11/30 05:25:27;;;;;;;14.07;6.13;;;1.60;99.90;;;;;;6178694;23;20443;-75
2023/11/30 05:27:53;;;;;;;14.35;6.43;;;1.60;99.90;;;;;;6179331;23;20020;-76
2023/11/30 05:30:18;;;;;;;15.48;6.32;;;1.60;99.90;;;;;;6177273;23;20039;-76
2023/11/30 05:32:44;;;;;;;14.23;6.07;;;1.60;99.90;;;;;;6180526;23;20019;-75
2023/11/30 05:35:10;;;;;;;16.88;6.75;;;1.60;99.90;;;;;;6177881;23;20084;-76
2023/11/30 05:37:36;;;;;;;17.38;7.93;;;1.60;99.90;;;;;;6176940;23;20037;-75
2023/11/30 05:40:03;;;;;;;16.73;6.70;;;1.60;99.90;;;;;;6178173;23;20491;-75
2023/11/30 05:42:29;;;;;;;14.27;6.32;;;1.60;99.90;;;;;;6178897;23;20316;-75
2023/11/30 05:44:54;;;;;;;18.45;6.57;;;1.60;99.90;;;;;;6178614;23;20092;-76
2023/11/30 05:47:21;;;;;;;13.27;6.35;;;1.60;99.90;;;;;;6176806;23;20021;-74
2023/11/30 05:49:47;;;;;;;14.50;6.22;;;1.70;99.90;;;;;;6178147;23;20470;-76
2023/11/30 05:52:13;;;;;;;11.23;5.78;;;1.70;99.90;;;;;;6178210;23;20017;-76
2023/11/30 05:54:38;;;;;;;18.95;7.30;;;1.80;99.90;;;;;;6172199;23;20084;-76
2023/11/30 05:57:04;;;;;;;14.40;6.05;;;1.80;99.90;;;;;;6175626;23;20040;-75
2023/11/30 05:59:30;;;;;;;17.73;7.20;;;1.90;99.90;;;;;;6176377;23;20013;-75
2023/11/30 06:01:55;;;;;;;21.05;7.30;;;1.90;99.90;;;;;;6176245;23;20005;-76
2023/11/30 06:04:21;;;;;;;15.50;6.65;;;1.90;99.90;;;;;;6176121;23;20013;-75
2023/11/30 06:06:46;;;;;;;15.13;7.68;;;2.00;99.90;;;;;;6173471;23;20037;-76
2023/11/30 06:09:15;;;;;;;13.60;6.97;;;2.00;99.90;;;;;;6177464;23;20017;-76
2023/11/30 06:11:40;;;;;;;13.85;6.32;;;2.00;99.90;;;;;;6178439;23;20044;-75
2023/11/30 06:14:06;;;;;;;11.63;6.38;;;2.00;99.90;;;;;;6178472;23;20009;-74
2023/11/30 06:16:31;;;;;;;15.65;6.43;;;2.10;99.90;;;;;;6177192;23;20351;-75
2023/11/30 06:18:57;;;;;;;15.95;6.57;;;2.10;99.90;;;;;;6179135;23;20447;-75
2023/11/30 06:21:23;;;;;;;11.32;5.38;;;2.10;99.90;;;;;;6178255;23;20128;-75
2023/11/30 06:23:48;;;;;;;10.45;5.88;;;2.10;99.90;;;;;;6179533;23;20020;-76
2023/11/30 06:26:14;;;;;;;10.15;4.75;;;2.20;99.90;;;;;;6179520;23;20597;-75
2023/11/30 06:28:40;;;;;;;9.32;5.10;;;2.20;99.90;;;;;;6178004;23;20005;-75
2023/11/30 06:31:07;;;;;;;11.90;4.65;;;2.20;99.90;;;;;;6177030;23;20013;-75
2023/11/30 06:33:32;;;;;;;9.65;4.65;;;2.20;99.90;;;;;;6176266;23;20019;-75
2023/11/30 06:35:58;;;;;;;11.13;4.65;;;2.20;99.90;;;;;;6178866;23;20013;-75
2023/11/30 06:38:23;;;;;;;10.15;4.78;;;2.20;99.90;;;;;;6175698;23;20497;-75
2023/11/30 06:40:49;;;;;;;11.63;4.88;;;2.20;99.90;;;;;;6176972;23;20036;-77
2023/11/30 06:43:15;;;;;;;13.07;5.50;;;2.20;99.90;;;;;;6176607;23;20866;-76
2023/11/30 06:45:40;;;;;;;10.88;5.53;;;2.20;99.90;;;;;;6178035;23;20088;-77
2023/11/30 06:48:06;;;;;;;8.13;4.38;;;2.20;99.90;;;;;;6177406;23;20015;-76
2023/11/30 06:50:31;;;;;;;10.80;4.72;;;2.20;99.90;;;;;;6175494;23;20084;-74
2023/11/30 06:52:57;;;;;;;9.27;4.85;;;2.20;99.90;;;;;;6178978;23;20067;-75
2023/11/30 06:55:23;;;;;;;11.57;5.10;;;2.20;99.90;;;;;;6177017;23;20005;-74
2023/11/30 06:57:48;;;;;;;11.93;5.45;;;2.20;99.90;;;;;;6178426;23;20009;-75
2023/11/30 07:00:14;;;;;;;10.70;5.07;;;2.20;99.90;;;;;;6179716;23;20005;-76
2023/11/30 07:02:40;;;;;;;10.93;5.68;;;2.20;99.90;;;;;;6176451;23;20013;-75
2023/11/30 07:05:06;;;;;;;10.70;4.82;;;2.20;99.90;;;;;;6177386;23;20490;-75
2023/11/30 07:07:33;;;;;;;13.13;5.75;;;2.20;99.90;;;;;;6178087;23;20009;-74
2023/11/30 07:09:59;;;;;;;11.07;5.43;;;2.10;99.90;;;;;;6177070;23;20005;-76
2023/11/30 07:12:24;;;;;;;14.02;5.07;;;2.20;99.90;;;;;;6177103;23;20028;-78
2023/11/30 07:14:50;;;;;;;8.45;4.45;;;2.10;99.90;;;;;;6176466;23;20020;-75
2023/11/30 07:17:16;;;;;;;11.70;5.38;;;2.10;99.90;;;;;;6176051;23;20443;-75
2023/11/30 07:19:41;;;;;;;12.27;5.70;;;2.10;99.90;;;;;;6176157;23;20009;-74
2023/11/30 07:22:08;;;;;;;11.80;5.35;;;2.20;99.90;;;;;;6176140;23;20006;-75
2023/11/30 07:24:33;;;;;;;11.32;6.03;;;2.20;99.90;;;;;;6174780;23;20012;-75
2023/11/30 07:26:59;;;;;;;13.18;6.03;;;2.20;99.90;;;;;;6176786;23;20016;-75
2023/11/30 07:29:25;;;;;;;13.40;5.85;;;2.20;99.90;;;;;;6176953;23;20020;-75
2023/11/30 07:31:51;;;;;;;10.20;4.90;;;2.20;99.90;;;;;;6175940;23;20013;-76
2023/11/30 07:34:17;;;;;;;9.90;5.18;;;2.20;99.90;;;;;;6175543;23;20013;-77
2023/11/30 07:36:43;;;;;;;14.43;5.57;;;2.20;99.90;;;;;;6176271;23;20450;-76
2023/11/30 07:39:09;;;;;;;12.95;5.40;;;2.20;99.90;;;;;;6176229;23;20024;-76
2023/11/30 07:41:35;;;;;;;10.43;5.93;;;2.10;99.90;;;;;;6174812;23;24131;-75
2023/11/30 07:44:02;;;;;;;14.65;5.85;;;2.10;99.90;;;;;;6177220;23;20068;-76
2023/11/30 07:46:27;;;;;;;16.88;6.30;;;2.10;99.90;;;;;;6177302;23;20025;-77
2023/11/30 07:48:56;;;;;;;15.50;5.63;;;2.00;99.90;;;;;;6178771;23;20079;-76
2023/11/30 07:51:23;;;;;;;14.88;6.85;;;2.00;99.90;;;;;;6177497;23;20040;-75
2023/11/30 07:53:49;;;;;;;13.60;6.90;;;2.00;99.90;;;;;;6179118;23;20013;-73
2023/11/30 07:56:18;;;;;;;10.50;5.43;;;2.00;99.90;;;;;;6181359;23;20013;-75
2023/11/30 07:58:44;;;;;;;11.10;5.25;;;2.00;99.90;;;;;;6181159;23;20062;-75
2023/11/30 08:01:09;;;;;;;15.40;5.85;;;2.00;99.90;;;;;;6178221;23;20410;-76
2023/11/30 08:03:35;;;;;;;12.73;6.70;;;2.00;99.90;;;;;;6177163;23;20021;-76
2023/11/30 08:06:00;;;;;;;12.60;6.28;;;2.00;99.90;;;;;;6175973;23;20017;-75
2023/11/30 08:08:26;;;;;;;14.25;5.97;;;2.00;99.90;;;;;;6174685;23;20019;-76
2023/11/30 08:10:52;;;;;;;13.27;7.03;;;2.00;99.90;;;;;;6176522;23;20009;-76
2023/11/30 08:13:19;;;;;;;13.73;6.07;;;2.10;99.90;;;;;;6175655;23;20091;-75
2023/11/30 08:15:45;;;;;;;14.27;6.60;;;2.20;99.90;;;;;;6176637;23;20009;-75
2023/11/30 08:18:13;;;;;;;18.58;7.50;;;2.20;99.90;;;;;;6175853;23;20208;-78
2023/11/30 08:20:39;;;;;;;13.80;6.07;;;2.20;99.90;;;;;;6175397;23;20339;-77
2023/11/30 08:23:05;;;;;;;14.00;6.60;;;2.20;99.90;;;;;;6176357;23;20019;-76
2023/11/30 08:25:31;;;;;;;13.70;6.97;;;2.30;99.90;;;;;;6174795;23;20013;-76
2023/11/30 08:27:57;;;;;;;15.65;7.13;;;2.30;99.90;;;;;;6176179;23;20032;-76
2023/11/30 08:30:22;;;;;;;15.10;6.63;;;2.30;99.90;;;;;;6175277;23;20013;-74
2023/11/30 08:32:48;;;;;;;13.00;6.70;;;2.30;99.90;;;;;;6178665;23;20098;-77
2023/11/30 08:35:13;;;;;;;16.80;7.70;;;2.30;99.90;;;;;;6179362;23;20408;-76
2023/11/30 08:37:39;;;;;;;17.92;7.70;;;2.40;99.90;;;;;;6179386;23;20020;-74
2023/11/30 08:40:07;;;;;;;14.60;6.97;;;2.40;99.90;;;;;;6178488;23;20001;-75
2023/11/30 08:42:35;;;;;;;16.58;6.00;;;2.40;99.90;;;;;;6176371;23;20001;-76
2023/11/30 08:45:02;;;;;;;13.05;6.85;;;2.40;99.90;;;;;;6178060;23;20012;-76
2023/11/30 08:47:28;;;;;;;14.85;6.60;;;2.40;99.90;;;;;;6176934;23;20522;-76
2023/11/30 08:49:53;;;;;;;14.40;5.78;;;2.30;99.90;;;;;;6177812;23;20021;-77
2023/11/30 08:52:19;;;;;;;12.18;6.18;;;2.30;99.90;;;;;;6176195;23;20107;-77
2023/11/30 08:54:44;;;;;;;11.70;6.20;;;2.20;99.90;;;;;;6176784;23;20009;-76
2023/11/30 08:57:12;;;;;;;13.73;6.50;;;2.20;99.90;;;;;;6177535;23;20016;-76
2023/11/30 08:59:38;;;;;;;15.90;7.15;;;2.10;99.90;;;;;;6175809;23;20012;-76
2023/11/30 09:02:05;;;;;;;14.68;6.88;;;2.10;99.90;;;;;;6175854;23;20009;-77
2023/11/30 09:04:31;;;;;;;19.77;7.68;;;2.10;99.90;;;;;;6173642;23;20015;-76
2023/11/30 09:06:56;;;;;;;15.02;6.55;;;2.10;99.90;;;;;;6175934;23;20517;-76
2023/11/30 09:09:22;;;;;;;13.90;7.07;;;2.10;99.90;;;;;;6174715;23;20015;-76
2023/11/30 09:11:47;;;;;;;15.05;6.93;;;2.10;99.90;;;;;;6178098;23;20335;-76
2023/11/30 09:14:13;;;;;;;20.05;7.80;;;2.10;99.90;;;;;;6177188;23;20083;-76
2023/11/30 09:16:39;;;;;;;21.63;8.63;;;2.10;99.90;;;;;;6177048;23;20009;-76
2023/11/30 09:19:07;;;;;;;22.55;8.32;;;2.20;99.90;;;;;;6177340;23;20023;-76
2023/11/30 09:21:33;;;;;;;16.80;8.15;;;2.10;99.90;;;;;;6176810;23;20013;-76
2023/11/30 09:24:00;;;;;;;20.95;8.60;;;2.10;99.90;;;;;;6175402;23;20501;-76
2023/11/30 09:26:26;;;;;;;17.98;7.72;;;2.10;99.90;;;;;;6174584;23;20095;-75
2023/11/30 09:28:51;;;;;;;27.38;8.27;;;2.10;99.90;;;;;;6176822;23;20408;-75
2023/11/30 09:31:17;;;;;;;29.02;9.00;;;2.10;99.90;;;;;;6175397;23;20013;-76
2023/11/30 09:33:43;;;;;;;44.90;9.00;;;2.10;99.90;;;;;;6177326;23;20079;-75
2023/11/30 09:36:09;;;;;;;31.33;8.25;;;2.20;99.90;;;;;;6179502;23;20086;-76
2023/11/30 09:38:35;;;;;;;22.08;7.80;;;2.10;99.90;;;;;;6179394;23;20009;-76
2023/11/30 09:41:05;;;;;;;23.27;8.88;;;2.10;99.90;;;;;;6177936;23;20016;-76
2023/11/30 09:43:32;;;;;;;32.72;8.95;;;2.10;99.90;;;;;;6176511;23;20346;-77
2023/11/30 09:45:57;;;;;;;34.83;11.18;;;2.10;99.90;;;;;;6179925;23;20013;-76
2023/11/30 09:48:23;;;;;;;30.45;8.68;;;2.10;99.90;;;;;;6176990;23;20470;-76
2023/11/30 09:50:49;;;;;;;33.33;9.05;;;2.10;99.90;;;;;;6177396;23;20017;-77
2023/11/30 09:53:14;;;;;;;23.60;8.05;;;2.10;99.90;;;;;;6177914;23;20842;-76
2023/11/30 09:55:40;;;;;;;20.42;9.30;;;2.20;99.90;;;;;;6176247;23;20343;-76
2023/11/30 09:58:06;;;;;;;18.05;8.85;;;2.20;99.90;;;;;;6179644;23;20009;-76
2023/11/30 10:00:31;;;;;;;21.38;10.05;;;2.20;99.90;;;;;;6176989;23;20016;-76
2023/11/30 10:02:59;;;;;;;20.08;9.35;;;2.30;99.90;;;;;;6178058;23;20012;-75
2023/11/30 10:05:26;;;;;;;20.25;8.55;;;2.30;99.90;;;;;;6176326;23;20009;-76
2023/11/30 10:07:52;;;;;;;23.35;8.77;;;2.40;99.90;;;;;;6177684;23;20001;-75
2023/11/30 10:10:17;;;;;;;24.27;9.50;;;2.40;99.90;;;;;;6177341;23;20320;-75
2023/11/30 10:12:44;;;;;;;23.27;7.93;;;2.40;99.90;;;;;;6177228;23;20028;-76
2023/11/30 10:15:09;;;;;;;19.27;8.45;;;2.40;99.90;;;;;;6179366;23;20418;-75
2023/11/30 10:17:36;;;;;;;27.27;10.25;;;2.40;99.90;;;;;;6176905;23;21799;-77
2023/11/30 10:20:04;;;;;;;24.25;9.68;;;2.30;99.90;;;;;;6179792;23;20008;-76
2023/11/30 10:22:30;;;;;;;22.58;9.23;;;2.40;99.90;;;;;;6176596;23;20005;-76
2023/11/30 10:24:56;;;;;;;24.88;9.25;;;2.40;99.90;;;;;;6177740;23;20760;-76
2023/11/30 10:27:24;;;;;;;18.30;7.93;;;2.50;99.90;;;;;;6179270;23;20027;-76
2023/11/30 10:29:51;;;;;;;25.13;9.50;;;2.40;99.90;;;;;;6181506;23;20424;-77
2023/11/30 10:32:17;;;;;;;18.00;8.15;;;2.50;99.90;;;;;;6174086;23;20020;-75
2023/11/30 10:34:47;;;;;;;21.45;9.73;;;2.50;99.90;;;;;;6175535;23;20013;-78
2023/11/30 10:37:18;;;;;;;17.88;8.25;;;2.50;99.90;;;;;;6174959;23;20040;-76
2023/11/30 10:40:07;;;;;;;17.85;7.00;;;2.50;99.90;;;;;;6174584;23;20005;-78
2023/11/30 10:42:35;;;;;;;18.60;7.35;;;2.50;99.90;;;;;;6175727;23;20659;-77
2023/11/30 10:45:03;;;;;;;22.23;8.82;;;2.60;99.90;;;;;;6175253;23;20079;-75
2023/11/30 10:47:29;;;;;;;20.33;8.07;;;2.70;99.90;;;;;;6173567;23;20260;-76
2023/11/30 10:50:05;;;;;;;19.85;9.05;;;2.70;99.90;;;;;;6177485;23;20120;-77
2023/11/30 10:52:32;;;;;;;22.70;8.43;;;2.70;99.90;;;;;;6176095;23;20020;-76
2023/11/30 10:55:10;;;;;;;18.95;8.73;;;2.80;99.90;;;;;;6174899;23;20332;-76
2023/11/30 10:57:36;;;;;;;31.40;9.27;;;2.70;99.90;;;;;;6174497;23;20016;-76
2023/11/30 11:00:02;;;;;;;22.58;8.75;;;2.70;99.90;;;;;;6176267;23;20002;-77
2023/11/30 11:02:38;;;;;;;23.63;9.27;;;2.70;99.90;;;;;;6173897;23;20027;-76
2023/11/30 11:05:14;;;;;;;19.27;7.85;;;2.70;99.90;;;;;;6176814;23;20013;-75
2023/11/30 11:07:51;;;;;;;23.85;8.27;;;2.70;99.90;;;;;;6176120;23;20009;-76
2023/11/30 11:10:22;;;;;;;14.95;6.75;;;2.80;99.90;;;;;;6176177;23;20038;-74
2023/11/30 11:12:50;;;;;;;16.70;8.43;;;2.80;99.90;;;;;;6174939;23;20339;-75
2023/11/30 11:15:20;;;;;;;21.75;9.63;;;2.70;99.90;;;;;;6176325;23;20071;-75
2023/11/30 11:17:53;;;;;;;19.58;7.55;;;2.70;99.90;;;;;;6176383;23;20358;-76
2023/11/30 11:20:28;;;;;;;21.88;8.02;;;2.70;99.90;;;;;;6178023;23;20356;-76
2023/11/30 11:23:02;;;;;;;31.00;8.38;;;2.70;99.90;;;;;;6174400;23;20106;-77
2023/11/30 11:25:28;;;;;;;22.98;7.68;;;2.70;99.90;;;;;;6174674;23;20020;-75
2023/11/30 11:27:55;;;;;;;21.27;7.90;;;2.70;99.90;;;;;;6173122;23;20080;-78
2023/11/30 11:30:26;;;;;;;25.65;8.05;;;2.60;99.90;;;;;;6174162;23;20040;-75
2023/11/30 11:32:56;;;;;;;18.40;8.18;;;2.60;99.90;;;;;;6170326;23;20076;-75
2023/11/30 11:35:21;;;;;;;16.23;7.60;;;2.60;99.90;;;;;;6168993;22;20019;-74
2023/11/30 11:37:47;;;;;;;18.73;8.23;;;2.70;99.90;;;;;;6172283;23;20005;-74
2023/11/30 11:40:13;;;;;;;20.45;9.00;;;2.70;99.90;;;;;;6174071;23;20013;-74
2023/11/30 11:42:38;;;;;;;18.27;7.38;;;2.70;99.90;;;;;;6172558;23;20013;-73
2023/11/30 11:45:05;;;;;;;22.35;8.77;;;2.70;99.90;;;;;;6173293;23;20013;-73
2023/11/30 11:47:30;;;;;;;28.30;9.18;;;2.70;99.90;;;;;;6172174;23;20049;-71
2023/11/30 11:49:56;;;;;;;20.60;10.13;;;2.70;99.90;;;;;;6175755;23;20071;-72
2023/11/30 11:52:22;;;;;;;25.95;10.23;;;2.70;99.90;;;;;;6174711;23;20005;-73
2023/11/30 11:55:03;;;;;;;23.08;9.88;;;2.70;99.90;;;;;;6175692;23;20324;-74
2023/11/30 11:57:37;;;;;;;26.40;10.15;;;2.80;99.90;;;;;;6174275;23;20486;-73
2023/11/30 12:00:05;;;;;;;28.60;10.95;;;2.80;99.90;;;;;;6173785;23;20332;-74
2023/11/30 12:02:32;;;;;;;31.10;11.32;;;2.80;99.90;;;;;;6173820;23;20091;-74
2023/11/30 12:05:10;;;;;;;30.58;10.57;;;2.90;99.90;;;;;;6173101;23;20008;-76
2023/11/30 12:07:51;;;;;;;28.50;10.60;;;2.90;99.90;;;;;;6174834;23;20013;-74
2023/11/30 12:10:32;;;;;;;;;;;3.00;99.90;;;;;;6175501;23;20071;-76
2023/11/30 12:13:00;;;;;;;23.13;8.88;;;3.00;99.90;;;;;;6174510;23;20237;-75
2023/11/30 12:15:26;;;;;;;24.88;9.65;;;3.00;99.90;;;;;;6173294;23;20015;-75
2023/11/30 12:17:52;;;;;;;26.13;10.45;;;2.90;99.90;;;;;;6174327;23;20001;-74
2023/11/30 12:20:18;;;;;;;23.15;9.60;;;2.80;99.90;;;;;;6171951;23;20005;-74
2023/11/30 12:22:45;;;;;;;24.17;10.07;;;2.80;99.90;;;;;;6173411;23;20569;-75
2023/11/30 12:25:11;;;;;;;22.88;10.20;;;2.80;99.90;;;;;;6172953;23;20009;-75
2023/11/30 12:27:37;;;;;;;21.65;9.13;;;2.80;99.90;;;;;;6171692;23;20009;-75
2023/11/30 12:30:04;;;;;;;27.98;10.57;;;2.90;99.90;;;;;;6173895;23;20016;-73
2023/11/30 12:32:29;;;;;;;30.52;10.40;;;2.90;99.90;;;;;;6174793;23;20440;-75
2023/11/30 12:34:57;;;;;;;25.42;8.90;;;2.90;99.90;;;;;;6174412;23;20009;-74
2023/11/30 12:37:23;;;;;;;28.83;8.75;;;2.90;99.90;;;;;;6172956;23;20426;-75
2023/11/30 12:39:49;;;;;;;21.02;8.20;;;2.90;99.90;;;;;;6176286;23;20021;-74
2023/11/30 12:42:15;;;;;;;30.77;11.50;;;2.90;99.90;;;;;;6174382;23;20044;-74
2023/11/30 12:44:40;;;;;;;27.52;9.50;;;2.90;99.90;;;;;;6174640;23;20427;-74
2023/11/30 12:47:06;;;;;;;27.77;9.70;;;2.90;99.90;;;;;;6174723;23;20084;-75
2023/11/30 12:49:32;;;;;;;26.77;10.27;;;2.90;99.90;;;;;;6172605;23;20466;-72
2023/11/30 12:51:58;;;;;;;26.55;10.43;;;2.90;99.90;;;;;;6176294;23;20016;-75
2023/11/30 12:54:23;;;;;;;27.92;10.13;;;3.00;99.90;;;;;;6173583;23;20012;-75
2023/11/30 12:56:49;;;;;;;25.77;10.77;;;3.00;99.90;;;;;;6175067;23;20015;-75
2023/11/30 12:59:14;;;;;;;30.85;11.02;;;3.10;99.90;;;;;;6174400;23;20482;-73
2023/11/30 13:01:40;;;;;;;24.98;9.65;;;3.00;99.90;;;;;;6175660;23;20040;-73